createdAt,value
2023-04-27T00:00:06.962Z,8.03
2023-04-27T00:03:19.701Z,8.15
2023-04-27T00:06:34.701Z,8.08
2023-04-27T00:09:40.621Z,7.96
2023-04-27T00:12:52.613Z,8.15
2023-04-27T00:16:08.840Z,8.15
2023-04-27T00:19:50.051Z,8.24
2023-04-27T00:23:13.416Z,8.24
2023-04-27T00:26:43.932Z,8.27
2023-04-27T00:30:20.409Z,8.25
2023-04-27T00:33:30.853Z,8.16
2023-04-27T00:37:15.264Z,7.79
2023-04-27T00:40:41.438Z,8.03
2023-04-27T00:43:57.226Z,7.99
2023-04-27T00:47:29.076Z,8.05
2023-04-27T00:50:53.181Z,8.01
2023-04-27T00:54:15.293Z,7.96
2023-04-27T00:57:43.130Z,8.00
2023-04-27T01:01:00.058Z,8.02
2023-04-27T01:04:05.422Z,7.97
2023-04-27T01:07:34.210Z,7.96
2023-04-27T01:10:55.138Z,7.90
2023-04-27T01:17:47.609Z,7.84
2023-04-27T01:21:20.963Z,7.85
2023-04-27T01:24:37.429Z,7.74
2023-04-27T01:28:20.100Z,7.82
2023-04-27T01:39:26.703Z,7.44
2023-04-27T01:42:51.589Z,7.63
2023-04-27T01:49:48.819Z,7.58
2023-04-27T01:53:20.393Z,7.53
2023-04-27T01:56:45.615Z,7.44
2023-04-27T01:59:56.061Z,7.42
2023-04-27T02:03:05.046Z,7.30
2023-04-27T02:06:16.015Z,7.40
2023-04-27T02:09:38.146Z,7.26
2023-04-27T02:12:51.331Z,7.10
2023-04-27T02:15:59.995Z,7.35
2023-04-27T02:19:12.300Z,7.14
2023-04-27T02:22:16.721Z,7.21
2023-04-27T02:25:21.549Z,7.27
2023-04-27T02:28:29.632Z,7.06
2023-04-27T02:31:45.352Z,6.93
2023-04-27T02:34:55.638Z,6.41
2023-04-27T02:38:13.355Z,6.63
2023-04-27T02:41:31.467Z,6.53
2023-04-27T02:44:45.486Z,6.52
2023-04-27T02:47:49.829Z,6.64
2023-04-27T02:50:59.311Z,6.80
2023-04-27T02:54:20.706Z,6.67
2023-04-27T02:57:26.545Z,6.63
2023-04-27T03:00:42.268Z,6.29
2023-04-27T03:04:00.663Z,6.47
2023-04-27T03:07:25.708Z,6.71
2023-04-27T03:10:33.132Z,6.65
2023-04-27T03:14:00.309Z,6.31
2023-04-27T03:17:10.562Z,6.51
2023-04-27T03:20:36.549Z,6.48
2023-04-27T03:24:04.890Z,6.44
2023-04-27T03:28:11.412Z,6.21
2023-04-27T03:31:56.575Z,6.26
2023-04-27T03:36:01.618Z,6.18
2023-04-27T03:52:50.015Z,6.11
2023-04-27T04:05:40.482Z,6.15
2023-04-27T04:09:24.021Z,6.48
2023-04-27T04:21:16.124Z,6.25
2023-04-27T04:29:38.294Z,6.14
2023-04-27T04:54:18.949Z,6.34
2023-04-27T04:57:45.955Z,6.29
2023-04-27T05:01:19.937Z,6.39
2023-04-27T05:04:55.057Z,6.49
2023-04-27T05:08:21.960Z,6.46
2023-04-27T05:12:16.746Z,6.39
2023-04-27T05:15:54.933Z,6.66
2023-04-27T05:23:14.231Z,6.87
2023-04-27T05:35:03.811Z,7.07
2023-04-27T05:41:03.412Z,7.00
2023-04-27T06:24:42.043Z,9.35
2023-04-27T06:42:38.519Z,9.82
2023-04-27T06:45:44.816Z,9.97
2023-04-27T06:48:47.285Z,10.05
2023-04-27T06:51:49.981Z,10.10
2023-04-27T06:54:56.146Z,10.03
2023-04-27T06:58:03.682Z,9.83
2023-04-27T07:06:37.709Z,10.16
2023-04-27T07:09:43.370Z,11.13
2023-04-27T07:13:16.998Z,12.87
2023-04-27T07:20:23.081Z,14.77
2023-04-27T07:23:44.767Z,15.92
2023-04-27T07:26:57.252Z,15.89
2023-04-27T07:30:26.881Z,15.41
2023-04-27T07:33:40.146Z,16.28
2023-04-27T07:36:56.429Z,15.21
2023-04-27T07:40:05.403Z,15.16
2023-04-27T07:43:20.689Z,14.95
2023-04-27T07:46:43.799Z,11.96
2023-04-27T07:49:49.576Z,11.77
2023-04-27T07:52:56.503Z,11.46
2023-04-27T07:56:12.502Z,11.21
2023-04-27T08:00:23.404Z,11.62
2023-04-27T08:08:47.870Z,11.36
2023-04-27T08:12:50.263Z,11.32
2023-04-27T08:17:07.671Z,11.11
2023-04-27T08:20:40.894Z,11.57
2023-04-27T08:23:56.647Z,11.55
2023-04-27T08:27:14.124Z,11.77
2023-04-27T08:30:23.897Z,12.03
2023-04-27T08:33:27.218Z,11.59
2023-04-27T08:36:44.473Z,11.34
2023-04-27T08:40:01.578Z,11.60
2023-04-27T08:43:11.723Z,11.87
2023-04-27T08:46:14.381Z,11.94
2023-04-27T08:49:27.088Z,11.66
2023-04-27T08:52:32.681Z,11.73
2023-04-27T08:56:37.706Z,11.83
2023-04-27T09:44:19.137Z,11.87
2023-04-27T09:47:30.182Z,11.76
2023-04-27T09:50:52.273Z,12.10
2023-04-27T09:54:05.879Z,11.79
2023-04-27T09:58:16.956Z,11.96
2023-04-27T10:11:29.250Z,11.85
2023-04-27T10:14:58.012Z,12.25
2023-04-27T10:29:41.786Z,12.90
2023-04-27T10:32:20.500Z,13.00
2023-04-27T10:36:06.980Z,13.28
2023-04-27T10:39:39.627Z,13.37
2023-04-27T10:42:51.287Z,12.87
2023-04-27T10:46:20.236Z,12.67
2023-04-27T10:49:23.787Z,13.03
2023-04-27T10:52:27.604Z,13.32
2023-04-27T10:55:36.603Z,13.44
2023-04-27T10:58:48.999Z,13.98
2023-04-27T11:01:56.193Z,14.55
2023-04-27T11:05:05.699Z,14.56
2023-04-27T11:13:54.102Z,14.72
2023-04-27T11:21:42.817Z,13.02
2023-04-27T11:32:36.970Z,13.72
2023-04-27T11:35:43.437Z,13.50
2023-04-27T11:38:46.378Z,13.59
2023-04-27T11:41:49.514Z,13.36
2023-04-27T11:44:59.240Z,13.71
2023-04-27T11:48:04.645Z,13.49
2023-04-27T11:51:10.558Z,13.42
2023-04-27T11:54:14.512Z,12.86
2023-04-27T11:57:17.220Z,13.24
2023-04-27T12:00:21.457Z,13.91
2023-04-27T12:03:30.361Z,13.85
2023-04-27T12:06:41.051Z,13.59
2023-04-27T12:09:45.115Z,13.73
2023-04-27T12:12:50.729Z,13.60
2023-04-27T12:16:01.622Z,13.51
2023-04-27T12:20:41.165Z,13.48
2023-04-27T12:24:16.955Z,13.23
2023-04-27T12:28:21.467Z,13.52
2023-04-27T12:31:41.500Z,13.52
2023-04-27T12:38:14.326Z,13.74
2023-04-27T12:41:19.771Z,13.90
2023-04-27T12:44:23.591Z,13.89
2023-04-27T12:47:46.074Z,13.83
2023-04-27T12:50:51.021Z,13.83
2023-04-27T12:53:58.218Z,13.70
2023-04-27T12:57:07.003Z,13.95
2023-04-27T13:00:10.756Z,13.84
2023-04-27T13:03:13.616Z,13.92
2023-04-27T13:06:21.379Z,13.51
2023-04-27T13:10:11.854Z,13.64
2023-04-27T13:13:17.636Z,13.49
2023-04-27T13:38:43.823Z,13.90
2023-04-27T13:54:56.315Z,13.54
2023-04-27T13:59:20.345Z,14.12
2023-04-27T14:13:58.854Z,13.86
2023-04-27T14:17:17.893Z,14.15
2023-04-27T14:29:11.657Z,14.32
2023-04-27T14:42:41.172Z,14.19
2023-04-27T14:51:04.952Z,13.99
2023-04-27T16:09:50.794Z,13.63
2023-04-27T16:13:25.870Z,13.79
2023-04-27T16:21:17.388Z,13.66
2023-04-27T16:25:27.730Z,13.58
2023-04-27T16:29:37.841Z,13.52
2023-04-27T16:33:36.585Z,13.50
2023-04-27T16:37:36.735Z,13.42
2023-04-27T16:41:36.836Z,13.35
2023-04-27T16:45:22.171Z,13.22
2023-04-27T16:49:27.057Z,13.29
2023-04-27T17:00:59.775Z,13.25
2023-04-27T17:10:12.048Z,13.11
2023-04-27T17:14:28.806Z,13.08
2023-04-27T17:17:49.640Z,13.05
2023-04-27T17:21:35.952Z,13.01
2023-04-27T17:25:29.071Z,12.86
2023-04-27T17:40:40.311Z,12.80
2023-04-27T17:48:34.083Z,12.37
2023-04-27T17:52:42.024Z,12.41
2023-04-27T17:56:23.730Z,12.42
2023-04-27T18:00:08.196Z,12.22
2023-04-27T18:03:53.870Z,12.32
2023-04-27T18:07:23.425Z,12.45
2023-04-27T18:14:21.683Z,12.30
2023-04-27T18:17:39.876Z,12.24
2023-04-27T18:21:12.649Z,12.15
2023-04-27T18:24:21.638Z,12.14
2023-04-27T18:27:33.338Z,12.32
2023-04-27T18:30:40.324Z,12.06
2023-04-27T18:33:48.970Z,11.75
2023-04-27T18:36:59.810Z,11.70
2023-04-27T18:40:07.401Z,11.58
2023-04-27T18:43:12.409Z,11.87
2023-04-27T18:46:27.733Z,11.82
2023-04-27T18:49:45.792Z,11.85
2023-04-27T18:53:01.606Z,11.72
2023-04-27T18:56:09.556Z,11.74
2023-04-27T18:59:16.461Z,11.85
2023-04-27T19:02:37.071Z,11.69
2023-04-27T19:05:56.597Z,11.60
2023-04-27T19:09:03.865Z,11.29
2023-04-27T19:16:24.968Z,11.54
2023-04-27T19:19:34.275Z,11.53
2023-04-27T19:22:53.774Z,11.32
2023-04-27T19:26:12.531Z,11.58
2023-04-27T19:29:34.113Z,11.42
2023-04-27T19:32:55.894Z,11.44
2023-04-27T19:36:06.452Z,11.36
2023-04-27T19:39:13.993Z,11.28
2023-04-27T19:42:38.284Z,11.14
2023-04-27T19:45:51.684Z,11.30
2023-04-27T19:49:20.861Z,11.28
2023-04-27T19:52:58.734Z,11.16
2023-04-27T19:56:34.238Z,11.15
2023-04-27T19:59:55.544Z,11.00
2023-04-27T20:03:22.872Z,11.07
2023-04-27T20:06:53.159Z,10.80
2023-04-27T20:10:04.018Z,11.01
2023-04-27T20:18:39.889Z,10.77
2023-04-27T20:22:20.636Z,10.61
2023-04-27T20:39:44.197Z,10.65
2023-04-27T20:56:22.794Z,10.36
2023-04-27T20:59:39.374Z,10.20
2023-04-27T21:03:01.220Z,10.38
2023-04-27T21:06:08.158Z,10.29
2023-04-27T21:09:18.597Z,10.29
2023-04-27T21:12:24.840Z,10.22
2023-04-27T21:15:29.446Z,10.11
2023-04-27T21:18:36.063Z,9.91
2023-04-27T21:21:41.639Z,10.21
2023-04-27T21:24:47.978Z,9.97
2023-04-27T21:28:07.016Z,10.00
2023-04-27T21:31:20.772Z,10.04
2023-04-27T21:34:39.058Z,9.77
2023-04-27T21:37:43.160Z,9.95
2023-04-27T21:41:12.843Z,9.94
2023-04-27T21:44:34.754Z,9.75
2023-04-27T21:47:50.234Z,9.99
2023-04-27T21:51:18.768Z,9.83
2023-04-27T21:54:42.811Z,9.49
2023-04-27T21:58:01.336Z,9.49
2023-04-27T22:06:08.134Z,9.81
2023-04-27T22:09:52.965Z,9.40
2023-04-27T22:48:06.416Z,8.70
2023-04-27T23:02:55.243Z,8.52
2023-04-27T23:06:29.303Z,8.85
2023-04-27T23:09:47.625Z,8.57
2023-04-27T23:17:05.732Z,8.81
2023-04-27T23:37:23.897Z,8.49
2023-04-27T23:46:57.187Z,8.45
2023-04-27T23:54:21.211Z,7.85
2023-04-27T23:57:49.150Z,7.66
